Thalia — FPCS — position and weather

sailwx.info

Track history (hours):
 
Tides and Currents Weather Stations Pressure Air Temp Water Temp Dewpoint Dewpoint Depression Visibility Wind Speed Wind Dir Waves Ship Positions

Oceanographic research ship Thalia (France)

Detailed information on ship capabilities available from University of Delaware's Ocean Information Center.

Last reported at 2017-Oct-17 10:51 UTC. Time now 2017-Nov-18 00:48 UTC.
Position N 47°42' W 003°45'.
Warning: this ship's position is 31 days out of date.

Length 25 m; beam 7 m.

MMSI: 227270000.

Date/timePositionNaut miles runAvg speedWind from/ knotsBaromVisibWave heightAir tempDewpointWater temp
2017-Oct-17 10:51N 47°42' W 003°45'410.4
2017-Oct-17 10:28N 47°40' W 003°41'510.5
2017-Oct-17 10:00N 47°37' W 003°35'510.5
2017-Oct-17 09:30N 47°33' W 003°29'510.4
2017-Oct-17 09:00N 47°30' W 003°23'510.4
2017-Oct-17 08:30N 47°27' W 003°17'510.3
2017-Oct-17 08:00N 47°24' W 003°11'510.5
2017-Oct-17 07:30N 47°22' W 003°04'510.4
2017-Oct-17 07:00N 47°19' W 002°57'510.7
2017-Oct-17 06:30N 47°17' W 002°50'510.6
2017-Oct-17 06:00N 47°16' W 002°42'510.3
2017-Oct-17 05:30N 47°14' W 002°35'611.2
2017-Oct-17 05:00N 47°13' W 002°27'611.2
2017-Oct-17 04:30N 47°13' W 002°19'5 9.6
2017-Oct-17 03:58N 47°16' W 002°13'1 1.6
2017-Oct-17 03:27N 47°16' W 002°12'0 0.0
2017-Oct-17 02:24N 47°16' W 002°12'0 0.0
2017-Oct-17 02:00N 47°16' W 002°12'0 0.0
2017-Oct-17 01:30N 47°16' W 002°12'0 0.0
2017-Oct-17 00:41N 47°16' W 002°12'0 0.0
2017-Oct-16 23:11N 47°16' W 002°12'0 0.0
2017-Oct-16 20:24N 47°16' W 002°12'0 0.0
2017-Oct-16 19:57N 47°16' W 002°12'0 0.0
2017-Oct-16 19:09N 47°16' W 002°12'0 0.0
2017-Oct-16 18:14N 47°16' W 002°12'0 0.0
2017-Oct-16 17:56N 47°16' W 002°12'0 0.0
2017-Oct-16 08:49N 47°16' W 002°12'0 0.0
2017-Oct-16 08:30N 47°16' W 002°12'0 0.0
2017-Oct-16 01:09N 47°16' W 002°12'0 0.0
2017-Oct-16 00:51N 47°16' W 002°12'0 0.0
2017-Oct-16 00:21N 47°16' W 002°12'0 0.0
2017-Oct-15 23:51N 47°16' W 002°12'0 0.0
2017-Oct-15 23:21N 47°16' W 002°12'0 0.0
2017-Oct-15 22:59N 47°16' W 002°12'0 0.0
2017-Oct-15 22:20N 47°16' W 002°12'0 0.0
2017-Oct-15 21:50N 47°16' W 002°12'0 0.0
2017-Oct-15 21:17N 47°16' W 002°12'0 0.0
2017-Oct-15 20:49N 47°16' W 002°12'0 0.0
2017-Oct-15 20:25N 47°16' W 002°12'0 0.0
2017-Oct-15 19:43N 47°16' W 002°12'0 0.0
2017-Oct-15 19:07N 47°16' W 002°12'0 0.0
2017-Oct-15 18:43N 47°16' W 002°12'0 0.0
2017-Oct-15 18:30N 47°16' W 002°12'0 0.0
2017-Oct-15 18:00N 47°16' W 002°12'0 0.0
2017-Oct-15 17:18N 47°16' W 002°12'0 0.0
2017-Oct-15 16:42N 47°16' W 002°12'0 0.0
2017-Oct-15 15:53N 47°16' W 002°12'0 0.1
2017-Oct-15 15:29N 47°16' W 002°12'0 0.5
2017-Oct-15 14:56N 47°16' W 002°12'7 7.0
2017-Oct-15 13:57N 47°11' W 002°18'4 7.7
2017-Oct-15 13:22N 47°09' W 002°24'4 9.7
2017-Oct-15 12:56N 47°10' W 002°30'5 9.7
2017-Oct-15 12:27N 47°11' W 002°37'4 5.9
2017-Oct-15 11:44N 47°12' W 002°43'1 4.2
2017-Oct-15 11:30N 47°12' W 002°42'2 4.1
2017-Oct-15 10:57N 47°10' W 002°39'2 4.1
2017-Oct-15 10:31N 47°10' W 002°37'2 4.1
2017-Oct-15 10:00N 47°09' W 002°34'1 2.5
2017-Oct-15 09:30N 47°08' W 002°32'1 2.3
2017-Oct-15 09:00N 47°07' W 002°31'1 1.5
2017-Oct-15 08:30N 47°08' W 002°31'3 6.2
2017-Oct-15 08:00N 47°11' W 002°32'2 4.2
2017-Oct-15 07:29N 47°13' W 002°32'2 3.2
2017-Oct-15 07:00N 47°15' W 002°33'1 1.3
2017-Oct-15 06:29N 47°15' W 002°33'1 1.5
2017-Oct-15 06:00N 47°16' W 002°33'1 2.4
2017-Oct-15 05:30N 47°17' W 002°34'2 3.4
2017-Oct-15 04:57N 47°19' W 002°34'2 0.2
2017-Oct-14 17:03N 47°21' W 002°31'0 5.4
2017-Oct-14 17:00N 47°20' W 002°31'5 9.8
2017-Oct-14 16:30N 47°19' W 002°38'5 9.4
2017-Oct-14 15:58N 47°16' W 002°44'4 6.7
2017-Oct-14 15:25N 47°14' W 002°48'2 5.1
2017-Oct-14 15:00N 47°15' W 002°46'3 5.4
2017-Oct-14 14:30N 47°17' W 002°43'3 5.2
2017-Oct-14 14:00N 47°18' W 002°40'2 4.5
2017-Oct-14 13:30N 47°20' W 002°37'1 1.7
2017-Oct-14 13:00N 47°20' W 002°36'3 6.2
2017-Oct-14 12:27N 47°21' W 002°31'0 0.0
2017-Oct-14 08:42N 47°21' W 002°31'0 0.0
2017-Oct-14 08:20N 47°21' W 002°31'0 0.0
2017-Oct-14 07:53N 47°21' W 002°31'0 0.0
2017-Oct-14 07:29N 47°21' W 002°31'0 0.0
2017-Oct-14 06:55N 47°21' W 002°31'0 0.0
2017-Oct-14 06:17N 47°21' W 002°31'0 0.0
2017-Oct-14 05:51N 47°21' W 002°31'0 0.0
2017-Oct-14 05:25N 47°21' W 002°31'0 0.0
2017-Oct-14 04:51N 47°21' W 002°31'0 0.0
2017-Oct-14 04:30N 47°21' W 002°31'0 0.0
2017-Oct-14 03:59N 47°21' W 002°31'0 0.0
2017-Oct-14 03:28N 47°21' W 002°31'0 0.0
2017-Oct-14 03:00N 47°21' W 002°31'0 0.0
2017-Oct-14 02:28N 47°21' W 002°31'0 0.0
2017-Oct-14 01:52N 47°21' W 002°31'0 0.0
2017-Oct-14 01:23N 47°21' W 002°31'0 0.0
2017-Oct-14 00:59N 47°21' W 002°31'0 0.0
2017-Oct-14 00:30N 47°21' W 002°31'0 0.0
2017-Oct-14 00:00N 47°21' W 002°31'0 0.0
2017-Oct-13 23:30N 47°21' W 002°31'0 0.0
2017-Oct-13 23:00N 47°21' W 002°31'0 0.0
2017-Oct-13 22:24N 47°21' W 002°31'0 0.0
2017-Oct-13 21:40N 47°21' W 002°31'0 0.0
2017-Oct-13 21:30N 47°21' W 002°31'0 0.0
2017-Oct-13 21:00N 47°21' W 002°31'0 0.0
2017-Oct-13 20:30N 47°21' W 002°31'0 0.0
2017-Oct-13 19:55N 47°21' W 002°31'0 0.0
2017-Oct-13 19:30N 47°21' W 002°31'0 0.0
2017-Oct-13 18:59N 47°21' W 002°31'0 0.0
2017-Oct-13 18:16N 47°21' W 002°31'0 0.0
2017-Oct-13 18:00N 47°21' W 002°31'0 0.0
2017-Oct-13 17:29N 47°21' W 002°31'0 0.0
2017-Oct-13 16:45N 47°21' W 002°31'0 0.0
2017-Oct-13 16:30N 47°21' W 002°31'0 0.0
2017-Oct-13 15:58N 47°21' W 002°31'0 0.0
2017-Oct-13 15:28N 47°21' W 002°31'0 0.0
2017-Oct-13 15:01N 47°21' W 002°31'0 0.0
2017-Oct-13 14:27N 47°21' W 002°31'0 0.0
2017-Oct-13 14:01N 47°21' W 002°31'0 0.0
2017-Oct-13 13:30N 47°21' W 002°31'0 0.0
2017-Oct-13 13:00N 47°21' W 002°31'0 0.0
2017-Oct-13 12:31N 47°21' W 002°31'0 0.0
2017-Oct-13 12:00N 47°21' W 002°31'0 0.0
2017-Oct-13 11:29N 47°21' W 002°31'0 0.0
2017-Oct-13 11:00N 47°21' W 002°31'0 0.0
2017-Oct-13 10:28N 47°21' W 002°31'0 0.0
2017-Oct-13 10:00N 47°21' W 002°31'0 0.0
2017-Oct-13 09:29N 47°21' W 002°31'0 0.0
2017-Oct-13 09:00N 47°21' W 002°31'0 0.0
2017-Oct-13 08:20N 47°21' W 002°31'0 0.0
2017-Oct-13 08:00N 47°21' W 002°31'0 0.0
2017-Oct-13 07:08N 47°21' W 002°31'0 0.0
2017-Oct-13 06:56N 47°21' W 002°31'0 0.0
2017-Oct-13 06:29N 47°21' W 002°31'0 0.0
2017-Oct-13 05:51N 47°21' W 002°31'0 0.0
2017-Oct-13 05:27N 47°21' W 002°31'0 0.0
2017-Oct-13 04:59N 47°21' W 002°31'0 0.0
2017-Oct-13 04:21N 47°21' W 002°31'0 0.0
2017-Oct-13 04:00N 47°21' W 002°31'0 0.0
2017-Oct-13 03:24N 47°21' W 002°31'0 0.0
2017-Oct-13 02:58N 47°21' W 002°31'0 0.0
2017-Oct-13 02:26N 47°21' W 002°31'0 0.0
2017-Oct-13 01:45N 47°21' W 002°31'0 0.0
2017-Oct-13 01:21N 47°21' W 002°31'0 0.0
2017-Oct-13 00:58N 47°21' W 002°31'0 0.0
2017-Oct-13 00:28N 47°21' W 002°31'0 0.0
2017-Oct-12 23:57N 47°21' W 002°31'0 0.0
2017-Oct-12 23:28N 47°21' W 002°31'0 0.0
2017-Oct-12 22:57N 47°21' W 002°31'0 0.0
2017-Oct-12 22:16N 47°21' W 002°31'0 0.0
2017-Oct-12 22:00N 47°21' W 002°31'0 0.0
2017-Oct-12 21:27N 47°21' W 002°31'  
2017-Oct-10 07:28N 47°21' W 002°31'4 3.4
2017-Oct-10 06:25N 47°20' W 002°36'3 6.0
2017-Oct-10 06:00N 47°19' W 002°40'3 5.4
2017-Oct-10 05:28N 47°19' W 002°44'3 5.2
2017-Oct-10 04:54N 47°18' W 002°48'3 6.5
2017-Oct-10 04:30N 47°18' W 002°52'4 7.9
2017-Oct-10 04:01N 47°20' W 002°57'4 7.5
2017-Oct-10 03:31N 47°21' W 003°02'4 7.7
2017-Oct-10 03:00N 47°23' W 003°08'4 8.4
2017-Oct-10 02:31N 47°24' W 003°13'4 8.3
2017-Oct-10 02:01N 47°26' W 003°19'4 7.6
2017-Oct-10 01:31N 47°27' W 003°24'4 7.5
2017-Oct-10 01:00N 47°29' W 003°29'4 7.4
2017-Oct-10 00:30N 47°30' W 003°34'4 7.4
2017-Oct-10 00:00N 47°32' W 003°39'4 7.4
2017-Oct-09 23:31N 47°33' W 003°44'48 7.8
2017-Oct-09 17:20N 48°01' W 004°43'3 8.7
2017-Oct-09 17:00N 48°03' W 004°46'5 9.0
2017-Oct-09 16:29N 48°07' W 004°44'5 9.5
2017-Oct-09 16:00N 48°12' W 004°42'5 9.3
2017-Oct-09 15:30N 48°16' W 004°40'4 8.8
2017-Oct-09 15:00N 48°19' W 004°35'3 6.9
2017-Oct-09 14:30N 48°21' W 004°31'2 4.0
2017-Oct-09 13:59N 48°23' W 004°29'0 0.0
2017-Oct-09 13:29N 48°23' W 004°29'0 0.0
2017-Oct-09 12:59N 48°23' W 004°29'0 0.0
2017-Oct-09 12:29N 48°23' W 004°29'0 0.0
2017-Oct-09 11:58N 48°23' W 004°29'0 0.0
2017-Oct-09 11:28N 48°23' W 004°29'0 0.0
2017-Oct-09 10:58N 48°23' W 004°29'0 0.0
2017-Oct-09 10:28N 48°23' W 004°29'0 0.0
2017-Oct-09 09:58N 48°23' W 004°29'0 0.0
2017-Oct-09 09:30N 48°23' W 004°29'0 0.0
2017-Oct-09 09:00N 48°23' W 004°29'0 0.0
2017-Oct-09 08:30N 48°23' W 004°29'0 0.0
2017-Oct-09 08:00N 48°23' W 004°29'1 2.5
2017-Oct-09 07:30N 48°22' W 004°29'4 8.8
2017-Oct-09 07:01N 48°18' W 004°25'1 1.6
2017-Oct-09 06:30N 48°18' W 004°24'3 6.2
2017-Oct-09 06:01N 48°19' W 004°28'4 7.2
2017-Oct-09 05:29N 48°23' W 004°29'0 0.0
2017-Oct-09 05:00N 48°23' W 004°29'0 0.0
2017-Oct-09 04:29N 48°23' W 004°29'0 0.0
2017-Oct-09 03:59N 48°23' W 004°29'0 0.0
2017-Oct-09 03:29N 48°23' W 004°29'0 0.0
2017-Oct-09 02:58N 48°23' W 004°29'0 0.0
2017-Oct-09 02:28N 48°23' W 004°29'0 0.0
2017-Oct-09 01:58N 48°23' W 004°29'0 0.0
2017-Oct-09 01:28N 48°23' W 004°29'0 0.0
2017-Oct-09 00:58N 48°23' W 004°29'0 0.0
2017-Oct-09 00:30N 48°23' W 004°29'0 0.0
2017-Oct-09 00:00N 48°23' W 004°29'0 0.0
2017-Oct-08 23:30N 48°23' W 004°29'0 0.0
2017-Oct-08 23:00N 48°23' W 004°29'0 0.0
2017-Oct-08 22:30N 48°23' W 004°29'0 0.0
2017-Oct-08 21:59N 48°23' W 004°29'0 0.0
2017-Oct-08 21:29N 48°23' W 004°29'0 0.0
2017-Oct-08 20:59N 48°23' W 004°29'0 0.0
2017-Oct-08 20:29N 48°23' W 004°29'0 0.0
2017-Oct-08 19:58N 48°23' W 004°29'0 0.0
2017-Oct-08 19:28N 48°23' W 004°29'0 0.0
2017-Oct-08 18:58N 48°23' W 004°29'0 0.0
2017-Oct-08 18:28N 48°23' W 004°29'0 0.0
2017-Oct-08 18:01N 48°23' W 004°29'0 0.0
2017-Oct-08 17:30N 48°23' W 004°29'0 0.0
2017-Oct-08 17:00N 48°23' W 004°29'0 0.0
2017-Oct-08 16:30N 48°23' W 004°29'0 0.0
2017-Oct-08 16:00N 48°23' W 004°29'0 0.0
2017-Oct-08 15:29N 48°23' W 004°29'0 0.0
2017-Oct-08 14:59N 48°23' W 004°29'0 0.0
2017-Oct-08 14:29N 48°23' W 004°29'0 0.0
2017-Oct-08 13:59N 48°23' W 004°29'0 0.0
2017-Oct-08 13:29N 48°23' W 004°29'0 0.0
2017-Oct-08 13:00N 48°23' W 004°29'3 5.8
2017-Oct-08 12:30N 48°20' W 004°28'4 7.4
2017-Oct-08 12:00N 48°18' W 004°24'0 0.3
2017-Oct-08 11:31N 48°18' W 004°24'0 0.3
2017-Oct-08 11:00N 48°18' W 004°24'0 0.2
2017-Oct-08 10:30N 48°18' W 004°24'0 0.0
2017-Oct-08 10:00N 48°18' W 004°24'0 0.0
2017-Oct-08 09:30N 48°18' W 004°24'0 0.0
2017-Oct-08 09:00N 48°18' W 004°24'3 6.7
2017-Oct-08 08:31N 48°19' W 004°28'3 6.9
2017-Oct-08 08:00N 48°23' W 004°29'0 0.0
2017-Oct-08 07:30N 48°23' W 004°29'0 0.0
2017-Oct-08 07:00N 48°23' W 004°29'0 0.0
2017-Oct-08 06:30N 48°23' W 004°29'0 0.0
2017-Oct-08 06:00N 48°23' W 004°29'0 0.0
2017-Oct-08 05:30N 48°23' W 004°29'0 0.0
2017-Oct-08 05:00N 48°23' W 004°29'0 0.0
2017-Oct-08 04:30N 48°23' W 004°29'0 0.0
2017-Oct-08 04:00N 48°23' W 004°29'0 0.0
2017-Oct-08 03:30N 48°23' W 004°29'0 0.0
2017-Oct-08 03:00N 48°23' W 004°29'0 0.0
2017-Oct-08 02:30N 48°23' W 004°29'0 0.0
2017-Oct-08 02:00N 48°23' W 004°29'0 0.0
2017-Oct-08 01:30N 48°23' W 004°29'0 0.0
2017-Oct-08 01:00N 48°23' W 004°29'0 0.0
2017-Oct-08 00:30N 48°23' W 004°29'0 0.0
2017-Oct-08 00:00N 48°23' W 004°29'0 0.0
2017-Oct-07 23:30N 48°23' W 004°29'0 0.0
2017-Oct-07 23:00N 48°23' W 004°29'0 0.0
2017-Oct-07 22:30N 48°23' W 004°29'0 0.0
2017-Oct-07 22:00N 48°23' W 004°29'0 0.0
2017-Oct-07 21:30N 48°23' W 004°29'0 0.0
2017-Oct-07 21:00N 48°23' W 004°29'0 0.0
2017-Oct-07 20:30N 48°23' W 004°29'0 0.0
2017-Oct-07 20:00N 48°23' W 004°29'0 0.0
2017-Oct-07 19:30N 48°23' W 004°29'0 0.0
2017-Oct-07 19:00N 48°23' W 004°29'0 0.0
2017-Oct-07 18:30N 48°23' W 004°29'0 0.0
2017-Oct-07 18:00N 48°23' W 004°29'0 0.0
2017-Oct-07 17:30N 48°23' W 004°29'0 0.0
2017-Oct-07 17:00N 48°23' W 004°29'0 0.0
2017-Oct-07 16:30N 48°23' W 004°29'0 0.0
2017-Oct-07 16:00N 48°23' W 004°29'0 0.0
2017-Oct-07 15:30N 48°23' W 004°29'0 0.0
2017-Oct-07 15:00N 48°23' W 004°29'0 0.0
2017-Oct-07 14:30N 48°23' W 004°29'0 0.0
2017-Oct-07 14:00N 48°23' W 004°29'0 0.0
2017-Oct-07 13:30N 48°23' W 004°29'0 0.0
2017-Oct-07 13:00N 48°23' W 004°29'0 0.0
2017-Oct-07 12:30N 48°23' W 004°29'1 2.5
2017-Oct-07 12:00N 48°22' W 004°29'1 3.0
2017-Oct-07 11:30N 48°20' W 004°28'0 0.7
2017-Oct-07 11:00N 48°21' W 004°28'  
Track history (hours):
 
Tides and Currents Weather Stations Pressure Air Temp Water Temp Dewpoint Dewpoint Depression Visibility Wind Speed Wind Dir Waves Ship Positions

Oceanographic research ship Thalia (France)

Detailed information on ship capabilities available from University of Delaware's Ocean Information Center.

Last reported at 2017-Oct-17 10:51 UTC. Time now 2017-Nov-18 00:48 UTC.
Position N 47°42' W 003°45'.
Warning: this ship's position is 31 days out of date.

Length 25 m; beam 7 m.

MMSI: 227270000.

Date/timePositionNaut miles runAvg speedWind from/ knotsBaromVisibWave heightAir tempDewpointWater temp
2017-Oct-17 10:51N 47°42' W 003°45'410.4
2017-Oct-17 10:28N 47°40' W 003°41'510.5
2017-Oct-17 10:00N 47°37' W 003°35'510.5
2017-Oct-17 09:30N 47°33' W 003°29'510.4
2017-Oct-17 09:00N 47°30' W 003°23'510.4
2017-Oct-17 08:30N 47°27' W 003°17'510.3
2017-Oct-17 08:00N 47°24' W 003°11'510.5
2017-Oct-17 07:30N 47°22' W 003°04'510.4
2017-Oct-17 07:00N 47°19' W 002°57'510.7
2017-Oct-17 06:30N 47°17' W 002°50'510.6
2017-Oct-17 06:00N 47°16' W 002°42'510.3
2017-Oct-17 05:30N 47°14' W 002°35'611.2
2017-Oct-17 05:00N 47°13' W 002°27'611.2
2017-Oct-17 04:30N 47°13' W 002°19'5 9.6
2017-Oct-17 03:58N 47°16' W 002°13'1 1.6
2017-Oct-17 03:27N 47°16' W 002°12'0 0.0
2017-Oct-17 02:24N 47°16' W 002°12'0 0.0
2017-Oct-17 02:00N 47°16' W 002°12'0 0.0
2017-Oct-17 01:30N 47°16' W 002°12'0 0.0
2017-Oct-17 00:41N 47°16' W 002°12'0 0.0
2017-Oct-16 23:11N 47°16' W 002°12'0 0.0
2017-Oct-16 20:24N 47°16' W 002°12'0 0.0
2017-Oct-16 19:57N 47°16' W 002°12'0 0.0
2017-Oct-16 19:09N 47°16' W 002°12'0 0.0
2017-Oct-16 18:14N 47°16' W 002°12'0 0.0
2017-Oct-16 17:56N 47°16' W 002°12'0 0.0
2017-Oct-16 08:49N 47°16' W 002°12'0 0.0
2017-Oct-16 08:30N 47°16' W 002°12'0 0.0
2017-Oct-16 01:09N 47°16' W 002°12'0 0.0
2017-Oct-16 00:51N 47°16' W 002°12'0 0.0
2017-Oct-16 00:21N 47°16' W 002°12'0 0.0
2017-Oct-15 23:51N 47°16' W 002°12'0 0.0
2017-Oct-15 23:21N 47°16' W 002°12'0 0.0
2017-Oct-15 22:59N 47°16' W 002°12'0 0.0
2017-Oct-15 22:20N 47°16' W 002°12'0 0.0
2017-Oct-15 21:50N 47°16' W 002°12'0 0.0
2017-Oct-15 21:17N 47°16' W 002°12'0 0.0
2017-Oct-15 20:49N 47°16' W 002°12'0 0.0
2017-Oct-15 20:25N 47°16' W 002°12'0 0.0
2017-Oct-15 19:43N 47°16' W 002°12'0 0.0
2017-Oct-15 19:07N 47°16' W 002°12'0 0.0
2017-Oct-15 18:43N 47°16' W 002°12'0 0.0
2017-Oct-15 18:30N 47°16' W 002°12'0 0.0
2017-Oct-15 18:00N 47°16' W 002°12'0 0.0
2017-Oct-15 17:18N 47°16' W 002°12'0 0.0
2017-Oct-15 16:42N 47°16' W 002°12'0 0.0
2017-Oct-15 15:53N 47°16' W 002°12'0 0.1
2017-Oct-15 15:29N 47°16' W 002°12'0 0.5
2017-Oct-15 14:56N 47°16' W 002°12'7 7.0
2017-Oct-15 13:57N 47°11' W 002°18'4 7.7
2017-Oct-15 13:22N 47°09' W 002°24'4 9.7
2017-Oct-15 12:56N 47°10' W 002°30'5 9.7
2017-Oct-15 12:27N 47°11' W 002°37'4 5.9
2017-Oct-15 11:44N 47°12' W 002°43'1 4.2
2017-Oct-15 11:30N 47°12' W 002°42'2 4.1
2017-Oct-15 10:57N 47°10' W 002°39'2 4.1
2017-Oct-15 10:31N 47°10' W 002°37'2 4.1
2017-Oct-15 10:00N 47°09' W 002°34'1 2.5
2017-Oct-15 09:30N 47°08' W 002°32'1 2.3
2017-Oct-15 09:00N 47°07' W 002°31'1 1.5
2017-Oct-15 08:30N 47°08' W 002°31'3 6.2
2017-Oct-15 08:00N 47°11' W 002°32'2 4.2
2017-Oct-15 07:29N 47°13' W 002°32'2 3.2
2017-Oct-15 07:00N 47°15' W 002°33'1 1.3
2017-Oct-15 06:29N 47°15' W 002°33'1 1.5
2017-Oct-15 06:00N 47°16' W 002°33'1 2.4
2017-Oct-15 05:30N 47°17' W 002°34'2 3.4
2017-Oct-15 04:57N 47°19' W 002°34'2 0.2
2017-Oct-14 17:03N 47°21' W 002°31'0 5.4
2017-Oct-14 17:00N 47°20' W 002°31'5 9.8
2017-Oct-14 16:30N 47°19' W 002°38'5 9.4
2017-Oct-14 15:58N 47°16' W 002°44'4 6.7
2017-Oct-14 15:25N 47°14' W 002°48'2 5.1
2017-Oct-14 15:00N 47°15' W 002°46'3 5.4
2017-Oct-14 14:30N 47°17' W 002°43'3 5.2
2017-Oct-14 14:00N 47°18' W 002°40'2 4.5
2017-Oct-14 13:30N 47°20' W 002°37'1 1.7
2017-Oct-14 13:00N 47°20' W 002°36'3 6.2
2017-Oct-14 12:27N 47°21' W 002°31'0 0.0
2017-Oct-14 08:42N 47°21' W 002°31'0 0.0
2017-Oct-14 08:20N 47°21' W 002°31'0 0.0
2017-Oct-14 07:53N 47°21' W 002°31'0 0.0
2017-Oct-14 07:29N 47°21' W 002°31'0 0.0
2017-Oct-14 06:55N 47°21' W 002°31'0 0.0
2017-Oct-14 06:17N 47°21' W 002°31'0 0.0
2017-Oct-14 05:51N 47°21' W 002°31'0 0.0
2017-Oct-14 05:25N 47°21' W 002°31'0 0.0
2017-Oct-14 04:51N 47°21' W 002°31'0 0.0
2017-Oct-14 04:30N 47°21' W 002°31'0 0.0
2017-Oct-14 03:59N 47°21' W 002°31'0 0.0
2017-Oct-14 03:28N 47°21' W 002°31'0 0.0
2017-Oct-14 03:00N 47°21' W 002°31'0 0.0
2017-Oct-14 02:28N 47°21' W 002°31'0 0.0
2017-Oct-14 01:52N 47°21' W 002°31'0 0.0
2017-Oct-14 01:23N 47°21' W 002°31'0 0.0
2017-Oct-14 00:59N 47°21' W 002°31'0 0.0
2017-Oct-14 00:30N 47°21' W 002°31'0 0.0
2017-Oct-14 00:00N 47°21' W 002°31'0 0.0
2017-Oct-13 23:30N 47°21' W 002°31'0 0.0
2017-Oct-13 23:00N 47°21' W 002°31'0 0.0
2017-Oct-13 22:24N 47°21' W 002°31'0 0.0
2017-Oct-13 21:40N 47°21' W 002°31'0 0.0
2017-Oct-13 21:30N 47°21' W 002°31'0 0.0
2017-Oct-13 21:00N 47°21' W 002°31'0 0.0
2017-Oct-13 20:30N 47°21' W 002°31'0 0.0
2017-Oct-13 19:55N 47°21' W 002°31'0 0.0
2017-Oct-13 19:30N 47°21' W 002°31'0 0.0
2017-Oct-13 18:59N 47°21' W 002°31'0 0.0
2017-Oct-13 18:16N 47°21' W 002°31'0 0.0
2017-Oct-13 18:00N 47°21' W 002°31'0 0.0
2017-Oct-13 17:29N 47°21' W 002°31'0 0.0
2017-Oct-13 16:45N 47°21' W 002°31'0 0.0
2017-Oct-13 16:30N 47°21' W 002°31'0 0.0
2017-Oct-13 15:58N 47°21' W 002°31'0 0.0
2017-Oct-13 15:28N 47°21' W 002°31'0 0.0
2017-Oct-13 15:01N 47°21' W 002°31'0 0.0
2017-Oct-13 14:27N 47°21' W 002°31'0 0.0
2017-Oct-13 14:01N 47°21' W 002°31'0 0.0
2017-Oct-13 13:30N 47°21' W 002°31'0 0.0
2017-Oct-13 13:00N 47°21' W 002°31'0 0.0
2017-Oct-13 12:31N 47°21' W 002°31'0 0.0
2017-Oct-13 12:00N 47°21' W 002°31'0 0.0
2017-Oct-13 11:29N 47°21' W 002°31'0 0.0
2017-Oct-13 11:00N 47°21' W 002°31'0 0.0
2017-Oct-13 10:28N 47°21' W 002°31'0 0.0
2017-Oct-13 10:00N 47°21' W 002°31'0 0.0
2017-Oct-13 09:29N 47°21' W 002°31'0 0.0
2017-Oct-13 09:00N 47°21' W 002°31'0 0.0
2017-Oct-13 08:20N 47°21' W 002°31'0 0.0
2017-Oct-13 08:00N 47°21' W 002°31'0 0.0
2017-Oct-13 07:08N 47°21' W 002°31'0 0.0
2017-Oct-13 06:56N 47°21' W 002°31'0 0.0
2017-Oct-13 06:29N 47°21' W 002°31'0 0.0
2017-Oct-13 05:51N 47°21' W 002°31'0 0.0
2017-Oct-13 05:27N 47°21' W 002°31'0 0.0
2017-Oct-13 04:59N 47°21' W 002°31'0 0.0
2017-Oct-13 04:21N 47°21' W 002°31'0 0.0
2017-Oct-13 04:00N 47°21' W 002°31'0 0.0
2017-Oct-13 03:24N 47°21' W 002°31'0 0.0
2017-Oct-13 02:58N 47°21' W 002°31'0 0.0
2017-Oct-13 02:26N 47°21' W 002°31'0 0.0
2017-Oct-13 01:45N 47°21' W 002°31'0 0.0
2017-Oct-13 01:21N 47°21' W 002°31'0 0.0
2017-Oct-13 00:58N 47°21' W 002°31'0 0.0
2017-Oct-13 00:28N 47°21' W 002°31'0 0.0
2017-Oct-12 23:57N 47°21' W 002°31'0 0.0
2017-Oct-12 23:28N 47°21' W 002°31'0 0.0
2017-Oct-12 22:57N 47°21' W 002°31'0 0.0
2017-Oct-12 22:16N 47°21' W 002°31'0 0.0
2017-Oct-12 22:00N 47°21' W 002°31'0 0.0
2017-Oct-12 21:27N 47°21' W 002°31'  
2017-Oct-10 07:28N 47°21' W 002°31'4 3.4
2017-Oct-10 06:25N 47°20' W 002°36'3 6.0
2017-Oct-10 06:00N 47°19' W 002°40'3 5.4
2017-Oct-10 05:28N 47°19' W 002°44'3 5.2
2017-Oct-10 04:54N 47°18' W 002°48'3 6.5
2017-Oct-10 04:30N 47°18' W 002°52'4 7.9
2017-Oct-10 04:01N 47°20' W 002°57'4 7.5
2017-Oct-10 03:31N 47°21' W 003°02'4 7.7
2017-Oct-10 03:00N 47°23' W 003°08'4 8.4
2017-Oct-10 02:31N 47°24' W 003°13'4 8.3
2017-Oct-10 02:01N 47°26' W 003°19'4 7.6
2017-Oct-10 01:31N 47°27' W 003°24'4 7.5
2017-Oct-10 01:00N 47°29' W 003°29'4 7.4
2017-Oct-10 00:30N 47°30' W 003°34'4 7.4
2017-Oct-10 00:00N 47°32' W 003°39'4 7.4
2017-Oct-09 23:31N 47°33' W 003°44'48 7.8
2017-Oct-09 17:20N 48°01' W 004°43'3 8.7
2017-Oct-09 17:00N 48°03' W 004°46'5 9.0
2017-Oct-09 16:29N 48°07' W 004°44'5 9.5
2017-Oct-09 16:00N 48°12' W 004°42'5 9.3
2017-Oct-09 15:30N 48°16' W 004°40'4 8.8
2017-Oct-09 15:00N 48°19' W 004°35'3 6.9
2017-Oct-09 14:30N 48°21' W 004°31'2 4.0
2017-Oct-09 13:59N 48°23' W 004°29'0 0.0
2017-Oct-09 13:29N 48°23' W 004°29'0 0.0
2017-Oct-09 12:59N 48°23' W 004°29'0 0.0
2017-Oct-09 12:29N 48°23' W 004°29'0 0.0
2017-Oct-09 11:58N 48°23' W 004°29'0 0.0
2017-Oct-09 11:28N 48°23' W 004°29'0 0.0
2017-Oct-09 10:58N 48°23' W 004°29'0 0.0
2017-Oct-09 10:28N 48°23' W 004°29'0 0.0
2017-Oct-09 09:58N 48°23' W 004°29'0 0.0
2017-Oct-09 09:30N 48°23' W 004°29'0 0.0
2017-Oct-09 09:00N 48°23' W 004°29'0 0.0
2017-Oct-09 08:30N 48°23' W 004°29'0 0.0
2017-Oct-09 08:00N 48°23' W 004°29'1 2.5
2017-Oct-09 07:30N 48°22' W 004°29'4 8.8
2017-Oct-09 07:01N 48°18' W 004°25'1 1.6
2017-Oct-09 06:30N 48°18' W 004°24'3 6.2
2017-Oct-09 06:01N 48°19' W 004°28'4 7.2
2017-Oct-09 05:29N 48°23' W 004°29'0 0.0
2017-Oct-09 05:00N 48°23' W 004°29'0 0.0
2017-Oct-09 04:29N 48°23' W 004°29'0 0.0
2017-Oct-09 03:59N 48°23' W 004°29'0 0.0
2017-Oct-09 03:29N 48°23' W 004°29'0 0.0
2017-Oct-09 02:58N 48°23' W 004°29'0 0.0
2017-Oct-09 02:28N 48°23' W 004°29'0 0.0
2017-Oct-09 01:58N 48°23' W 004°29'0 0.0
2017-Oct-09 01:28N 48°23' W 004°29'0 0.0
2017-Oct-09 00:58N 48°23' W 004°29'0 0.0
2017-Oct-09 00:30N 48°23' W 004°29'0 0.0
2017-Oct-09 00:00N 48°23' W 004°29'0 0.0
2017-Oct-08 23:30N 48°23' W 004°29'0 0.0
2017-Oct-08 23:00N 48°23' W 004°29'0 0.0
2017-Oct-08 22:30N 48°23' W 004°29'0 0.0
2017-Oct-08 21:59N 48°23' W 004°29'0 0.0
2017-Oct-08 21:29N 48°23' W 004°29'0 0.0
2017-Oct-08 20:59N 48°23' W 004°29'0 0.0
2017-Oct-08 20:29N 48°23' W 004°29'0 0.0
2017-Oct-08 19:58N 48°23' W 004°29'0 0.0
2017-Oct-08 19:28N 48°23' W 004°29'0 0.0
2017-Oct-08 18:58N 48°23' W 004°29'0 0.0
2017-Oct-08 18:28N 48°23' W 004°29'0 0.0
2017-Oct-08 18:01N 48°23' W 004°29'0 0.0
2017-Oct-08 17:30N 48°23' W 004°29'0 0.0
2017-Oct-08 17:00N 48°23' W 004°29'0 0.0
2017-Oct-08 16:30N 48°23' W 004°29'0 0.0
2017-Oct-08 16:00N 48°23' W 004°29'0 0.0
2017-Oct-08 15:29N 48°23' W 004°29'0 0.0
2017-Oct-08 14:59N 48°23' W 004°29'0 0.0
2017-Oct-08 14:29N 48°23' W 004°29'0 0.0
2017-Oct-08 13:59N 48°23' W 004°29'0 0.0
2017-Oct-08 13:29N 48°23' W 004°29'0 0.0
2017-Oct-08 13:00N 48°23' W 004°29'3 5.8
2017-Oct-08 12:30N 48°20' W 004°28'4 7.4
2017-Oct-08 12:00N 48°18' W 004°24'0 0.3
2017-Oct-08 11:31N 48°18' W 004°24'0 0.3
2017-Oct-08 11:00N 48°18' W 004°24'0 0.2
2017-Oct-08 10:30N 48°18' W 004°24'0 0.0
2017-Oct-08 10:00N 48°18' W 004°24'0 0.0
2017-Oct-08 09:30N 48°18' W 004°24'0 0.0
2017-Oct-08 09:00N 48°18' W 004°24'3 6.7
2017-Oct-08 08:31N 48°19' W 004°28'3 6.9
2017-Oct-08 08:00N 48°23' W 004°29'0 0.0
2017-Oct-08 07:30N 48°23' W 004°29'0 0.0
2017-Oct-08 07:00N 48°23' W 004°29'0 0.0
2017-Oct-08 06:30N 48°23' W 004°29'0 0.0
2017-Oct-08 06:00N 48°23' W 004°29'0 0.0
2017-Oct-08 05:30N 48°23' W 004°29'0 0.0
2017-Oct-08 05:00N 48°23' W 004°29'0 0.0
2017-Oct-08 04:30N 48°23' W 004°29'0 0.0
2017-Oct-08 04:00N 48°23' W 004°29'0 0.0
2017-Oct-08 03:30N 48°23' W 004°29'0 0.0
2017-Oct-08 03:00N 48°23' W 004°29'0 0.0
2017-Oct-08 02:30N 48°23' W 004°29'0 0.0
2017-Oct-08 02:00N 48°23' W 004°29'0 0.0
2017-Oct-08 01:30N 48°23' W 004°29'0 0.0
2017-Oct-08 01:00N 48°23' W 004°29'0 0.0
2017-Oct-08 00:30N 48°23' W 004°29'0 0.0
2017-Oct-08 00:00N 48°23' W 004°29'0 0.0
2017-Oct-07 23:30N 48°23' W 004°29'0 0.0
2017-Oct-07 23:00N 48°23' W 004°29'0 0.0
2017-Oct-07 22:30N 48°23' W 004°29'0 0.0
2017-Oct-07 22:00N 48°23' W 004°29'0 0.0
2017-Oct-07 21:30N 48°23' W 004°29'0 0.0
2017-Oct-07 21:00N 48°23' W 004°29'0 0.0
2017-Oct-07 20:30N 48°23' W 004°29'0 0.0
2017-Oct-07 20:00N 48°23' W 004°29'0 0.0
2017-Oct-07 19:30N 48°23' W 004°29'0 0.0
2017-Oct-07 19:00N 48°23' W 004°29'0 0.0
2017-Oct-07 18:30N 48°23' W 004°29'0 0.0
2017-Oct-07 18:00N 48°23' W 004°29'0 0.0
2017-Oct-07 17:30N 48°23' W 004°29'0 0.0
2017-Oct-07 17:00N 48°23' W 004°29'0 0.0
2017-Oct-07 16:30N 48°23' W 004°29'0 0.0
2017-Oct-07 16:00N 48°23' W 004°29'0 0.0
2017-Oct-07 15:30N 48°23' W 004°29'0 0.0
2017-Oct-07 15:00N 48°23' W 004°29'0 0.0
2017-Oct-07 14:30N 48°23' W 004°29'0 0.0
2017-Oct-07 14:00N 48°23' W 004°29'0 0.0
2017-Oct-07 13:30N 48°23' W 004°29'0 0.0
2017-Oct-07 13:00N 48°23' W 004°29'0 0.0
2017-Oct-07 12:30N 48°23' W 004°29'1 2.5
2017-Oct-07 12:00N 48°22' W 004°29'1 3.0
2017-Oct-07 11:30N 48°20' W 004°28'0 0.7
2017-Oct-07 11:00N 48°21' W 004°28'  

Dump ship's entire track history